createdAt,value
2023-04-09T00:01:22.594Z,2.47
2023-04-09T00:03:49.350Z,2.78
2023-04-09T00:06:16.482Z,2.35
2023-04-09T00:08:43.098Z,2.47
2023-04-09T00:11:09.662Z,2.78
2023-04-09T00:13:39.591Z,2.60
2023-04-09T00:16:07.518Z,2.28
2023-04-09T00:18:34.160Z,2.35
2023-04-09T00:21:00.654Z,2.60
2023-04-09T00:23:27.239Z,2.38
2023-04-09T00:25:53.746Z,2.67
2023-04-09T00:28:20.219Z,2.42
2023-04-09T00:30:46.735Z,2.60
2023-04-09T00:33:13.275Z,2.20
2023-04-09T00:35:39.866Z,2.30
2023-04-09T00:38:06.372Z,2.80
2023-04-09T00:40:33.030Z,2.40
2023-04-09T00:42:59.538Z,2.78
2023-04-09T00:45:26.133Z,2.60
2023-04-09T00:47:53.452Z,2.35
2023-04-09T00:50:20.461Z,2.45
2023-04-09T00:52:47.210Z,2.60
2023-04-09T00:55:14.427Z,3.15
2023-04-09T00:57:40.917Z,2.45
2023-04-09T01:00:08.275Z,2.30
2023-04-09T01:02:35.249Z,2.30
2023-04-09T01:05:02.072Z,2.50
2023-04-09T01:07:40.432Z,2.47
2023-04-09T01:10:51.258Z,2.40
2023-04-09T01:13:28.336Z,2.75
2023-04-09T01:15:58.538Z,2.40
2023-04-09T01:18:31.435Z,2.40
2023-04-09T01:21:06.063Z,2.97
2023-04-09T01:23:52.898Z,2.15
2023-04-09T01:26:57.248Z,2.90
2023-04-09T01:29:25.809Z,2.40
2023-04-09T01:31:54.345Z,2.72
2023-04-09T01:34:22.140Z,2.92
2023-04-09T01:36:58.200Z,2.50
2023-04-09T01:39:25.581Z,2.60
2023-04-09T01:41:53.537Z,2.80
2023-04-09T01:44:20.769Z,2.75
2023-04-09T01:46:48.601Z,2.47
2023-04-09T01:49:16.106Z,3.10
2023-04-09T01:51:43.425Z,2.85
2023-04-09T01:54:09.965Z,2.90
2023-04-09T01:56:46.552Z,2.40
2023-04-09T01:59:13.649Z,2.70
2023-04-09T02:01:50.061Z,2.70
2023-04-09T02:04:24.230Z,2.83
2023-04-09T02:07:14.300Z,2.70
2023-04-09T02:09:42.113Z,2.60
2023-04-09T02:12:13.563Z,3.28
2023-04-09T02:14:41.258Z,3.00
2023-04-09T02:17:08.130Z,2.70
2023-04-09T02:19:45.601Z,2.95
2023-04-09T02:22:12.996Z,3.13
2023-04-09T02:24:40.576Z,2.88
2023-04-09T02:27:07.987Z,2.60
2023-04-09T02:29:34.567Z,3.40
2023-04-09T02:32:01.247Z,2.70
2023-04-09T02:34:28.440Z,2.78
2023-04-09T02:36:54.893Z,3.13
2023-04-09T02:39:21.588Z,2.85
2023-04-09T02:41:48.078Z,3.00
2023-04-09T02:44:14.589Z,2.90
2023-04-09T02:46:42.000Z,3.03
2023-04-09T02:49:08.592Z,2.90
2023-04-09T02:51:36.043Z,3.17
2023-04-09T02:54:03.495Z,3.13
2023-04-09T02:56:30.007Z,3.22
2023-04-09T02:58:56.545Z,2.88
2023-04-09T03:01:23.183Z,3.35
2023-04-09T03:03:50.149Z,3.35
2023-04-09T03:06:18.385Z,3.15
2023-04-09T03:08:45.033Z,3.28
2023-04-09T03:11:11.541Z,3.35
2023-04-09T03:13:38.028Z,3.28
2023-04-09T03:16:04.790Z,3.17
2023-04-09T03:18:31.454Z,3.30
2023-04-09T03:20:57.893Z,3.60
2023-04-09T03:23:24.368Z,3.20
2023-04-09T03:26:01.165Z,3.20
2023-04-09T03:28:27.647Z,3.35
2023-04-09T03:30:54.184Z,3.15
2023-04-09T03:33:20.766Z,3.95
2023-04-09T03:35:47.405Z,3.50
2023-04-09T03:38:14.636Z,3.00
2023-04-09T03:40:42.644Z,3.10
2023-04-09T03:43:09.151Z,3.25
2023-04-09T03:45:35.887Z,3.30
2023-04-09T03:48:02.509Z,3.78
2023-04-09T03:50:29.093Z,3.10
2023-04-09T03:52:55.772Z,3.60
2023-04-09T03:55:22.384Z,3.40
2023-04-09T03:57:49.020Z,3.50
2023-04-09T04:00:15.663Z,3.33
2023-04-09T04:02:42.449Z,3.13
2023-04-09T04:05:09.216Z,3.63
2023-04-09T04:07:36.999Z,3.00
2023-04-09T04:10:05.778Z,3.30
2023-04-09T04:12:32.877Z,3.20
2023-04-09T04:14:59.392Z,3.15
2023-04-09T04:17:25.927Z,3.25
2023-04-09T04:19:52.428Z,3.25
2023-04-09T04:22:18.931Z,3.88
2023-04-09T04:24:45.496Z,3.10
2023-04-09T04:27:12.004Z,3.80
2023-04-09T04:29:38.922Z,2.97
2023-04-09T04:32:05.879Z,3.30
2023-04-09T04:34:32.480Z,3.33
2023-04-09T04:36:58.967Z,3.80
2023-04-09T04:39:25.735Z,3.15
2023-04-09T04:41:52.363Z,3.10
2023-04-09T04:44:18.882Z,4.00
2023-04-09T04:46:45.457Z,3.38
2023-04-09T04:49:11.927Z,3.13
2023-04-09T04:51:38.454Z,3.65
2023-04-09T04:54:04.955Z,3.60
2023-04-09T04:56:31.450Z,3.47
2023-04-09T04:58:57.963Z,3.38
2023-04-09T05:01:24.520Z,3.72
2023-04-09T05:03:51.187Z,3.30
2023-04-09T05:06:17.803Z,3.40
2023-04-09T05:08:44.364Z,3.45
2023-04-09T05:11:16.264Z,3.67
2023-04-09T05:13:42.759Z,3.08
2023-04-09T05:16:16.606Z,3.70
2023-04-09T05:18:43.136Z,3.50
2023-04-09T05:21:09.754Z,3.75
2023-04-09T05:23:36.431Z,3.47
2023-04-09T05:26:03.088Z,3.67
2023-04-09T05:28:29.817Z,3.75
2023-04-09T05:30:56.464Z,3.40
2023-04-09T05:33:22.990Z,3.83
2023-04-09T05:35:49.510Z,3.63
2023-04-09T05:38:16.508Z,3.88
2023-04-09T05:40:44.722Z,3.72
2023-04-09T05:43:11.771Z,3.80
2023-04-09T05:45:38.273Z,3.72
2023-04-09T05:48:05.112Z,3.20
2023-04-09T05:50:36.006Z,3.90
2023-04-09T05:53:07.608Z,3.95
2023-04-09T05:55:34.200Z,3.53
2023-04-09T05:58:00.881Z,8.35
2023-04-09T06:00:27.407Z,5.35
2023-04-09T06:02:53.974Z,5.18
2023-04-09T06:05:20.533Z,5.95
2023-04-09T06:07:47.195Z,6.43
2023-04-09T06:10:13.730Z,4.70
2023-04-09T06:12:40.262Z,7.82
2023-04-09T06:15:07.259Z,4.55
2023-04-09T06:17:33.787Z,4.40
2023-04-09T06:20:00.528Z,5.30
2023-04-09T06:22:27.021Z,6.72
2023-04-09T06:24:53.498Z,5.10
2023-04-09T06:27:22.049Z,3.78
2023-04-09T06:29:48.620Z,11.13
2023-04-09T06:32:15.335Z,4.90
2023-04-09T06:34:41.845Z,5.20
2023-04-09T06:37:08.327Z,6.60
2023-04-09T06:39:34.844Z,5.00
2023-04-09T06:42:01.371Z,4.35
2023-04-09T06:44:27.883Z,4.40
2023-04-09T06:46:54.386Z,4.18
2023-04-09T06:49:21.062Z,4.20
2023-04-09T06:51:47.784Z,4.05
2023-04-09T06:54:14.219Z,4.47
2023-04-09T06:56:41.077Z,3.83
2023-04-09T06:59:07.559Z,4.10
2023-04-09T07:01:35.660Z,4.95
2023-04-09T07:04:02.501Z,4.88
2023-04-09T07:06:29.397Z,4.28
2023-04-09T07:08:56.204Z,4.75
2023-04-09T07:11:22.820Z,4.55
2023-04-09T07:13:49.556Z,4.72
2023-04-09T07:16:16.203Z,4.80
2023-04-09T07:18:42.826Z,4.53
2023-04-09T07:21:09.330Z,4.72
2023-04-09T07:23:37.138Z,4.50
2023-04-09T07:26:05.355Z,4.68
2023-04-09T07:28:32.310Z,4.75
2023-04-09T07:31:01.281Z,4.68
2023-04-09T07:33:27.783Z,5.43
2023-04-09T07:35:54.911Z,8.80
2023-04-09T07:38:22.544Z,47.22
2023-04-09T07:40:49.120Z,34.60
2023-04-09T07:43:15.832Z,31.10
2023-04-09T07:45:42.438Z,28.20
2023-04-09T07:48:09.282Z,27.30
2023-04-09T07:50:36.512Z,22.30
2023-04-09T07:53:03.090Z,20.52
2023-04-09T07:55:29.548Z,22.13
2023-04-09T07:57:56.084Z,21.75
2023-04-09T08:00:22.643Z,17.20
2023-04-09T08:02:49.352Z,15.23
2023-04-09T08:05:16.118Z,15.27
2023-04-09T08:07:42.699Z,15.88
2023-04-09T08:10:14.004Z,14.40
2023-04-09T08:12:41.088Z,12.32
2023-04-09T08:15:08.289Z,13.68
2023-04-09T08:17:36.927Z,11.70
2023-04-09T08:20:04.783Z,10.32
2023-04-09T08:22:31.986Z,12.27
2023-04-09T08:25:00.261Z,9.85
2023-04-09T08:27:29.148Z,13.05
2023-04-09T08:29:55.771Z,14.20
2023-04-09T08:32:22.280Z,16.05
2023-04-09T08:34:48.848Z,20.02
2023-04-09T08:37:16.602Z,21.58
2023-04-09T08:39:43.178Z,26.10
2023-04-09T08:42:12.581Z,30.23
2023-04-09T08:44:39.188Z,32.90
2023-04-09T08:47:12.573Z,27.30
2023-04-09T08:49:40.945Z,26.95
2023-04-09T08:52:08.343Z,30.75
2023-04-09T08:54:35.427Z,28.55
2023-04-09T08:57:05.254Z,36.70
2023-04-09T08:59:36.797Z,24.92
2023-04-09T09:02:11.689Z,25.20
2023-04-09T09:04:46.634Z,21.77
2023-04-09T09:07:13.698Z,19.95
2023-04-09T09:09:53.972Z,19.67
2023-04-09T09:12:43.183Z,19.27
2023-04-09T09:15:27.358Z,20.83
2023-04-09T09:17:56.055Z,18.60
2023-04-09T09:20:23.521Z,16.02
2023-04-09T09:22:55.652Z,15.13
2023-04-09T09:25:26.278Z,17.50
2023-04-09T09:27:53.852Z,15.52
2023-04-09T09:30:25.340Z,12.43
2023-04-09T09:32:53.825Z,14.05
2023-04-09T09:35:20.646Z,15.05
2023-04-09T09:37:47.180Z,11.82
2023-04-09T09:40:27.808Z,11.82
2023-04-09T09:42:56.612Z,14.77
2023-04-09T09:45:24.053Z,14.68
2023-04-09T09:47:51.537Z,11.05
2023-04-09T09:50:18.490Z,10.73
2023-04-09T09:52:46.643Z,11.02
2023-04-09T09:55:17.951Z,11.20
2023-04-09T09:57:47.532Z,11.32
2023-04-09T10:00:15.294Z,10.07
2023-04-09T10:02:51.243Z,11.15
2023-04-09T10:05:17.864Z,13.65
2023-04-09T10:07:45.018Z,11.90
2023-04-09T10:10:11.596Z,11.23
2023-04-09T10:12:41.719Z,10.93
2023-04-09T10:15:09.452Z,12.13
2023-04-09T10:17:36.874Z,11.25
2023-04-09T10:20:26.088Z,11.55
2023-04-09T10:22:53.670Z,11.50
2023-04-09T10:25:20.774Z,13.40
2023-04-09T10:28:00.200Z,11.48
2023-04-09T10:30:33.430Z,12.73
2023-04-09T10:33:29.564Z,12.32
2023-04-09T10:36:00.824Z,12.57
2023-04-09T10:38:47.014Z,11.98
2023-04-09T10:41:29.427Z,11.77
2023-04-09T10:43:57.779Z,12.73
2023-04-09T10:46:34.493Z,12.18
2023-04-09T10:49:16.858Z,13.30
2023-04-09T10:51:50.954Z,14.73
2023-04-09T10:54:35.620Z,11.60
2023-04-09T10:57:07.977Z,12.85
2023-04-09T10:59:36.271Z,12.52
2023-04-09T11:02:07.016Z,13.02
2023-04-09T11:05:10.828Z,10.70
2023-04-09T11:07:43.857Z,12.15
2023-04-09T11:10:10.376Z,11.50
2023-04-09T11:12:36.905Z,11.50
2023-04-09T11:15:04.873Z,12.52
2023-04-09T11:17:36.656Z,12.27
2023-04-09T11:20:03.823Z,12.70
2023-04-09T11:22:30.631Z,12.18
2023-04-09T11:24:57.164Z,11.90
2023-04-09T11:27:23.917Z,12.75
2023-04-09T11:29:58.424Z,12.30
2023-04-09T11:32:30.367Z,11.98
2023-04-09T11:34:57.888Z,11.57
2023-04-09T11:37:24.993Z,12.95
2023-04-09T11:39:56.034Z,12.30
2023-04-09T11:42:25.660Z,12.07
2023-04-09T11:44:53.093Z,13.52
2023-04-09T11:47:21.069Z,12.32
2023-04-09T11:49:47.815Z,11.95
2023-04-09T11:52:16.674Z,13.13
2023-04-09T11:54:49.273Z,11.70
2023-04-09T11:57:16.134Z,12.68
2023-04-09T11:59:42.857Z,11.80
2023-04-09T12:02:09.480Z,12.35
2023-04-09T12:04:36.317Z,11.77
2023-04-09T12:07:03.098Z,11.43
2023-04-09T12:09:29.751Z,11.43
2023-04-09T12:11:56.623Z,11.80
2023-04-09T12:14:23.238Z,11.82
2023-04-09T12:16:52.974Z,11.50
2023-04-09T12:19:20.493Z,10.15
2023-04-09T12:21:47.969Z,11.95
2023-04-09T12:24:15.381Z,10.82
2023-04-09T12:26:41.901Z,11.52
2023-04-09T12:29:08.712Z,11.32
2023-04-09T12:31:36.138Z,10.85
2023-04-09T12:34:02.858Z,10.85
2023-04-09T12:36:29.854Z,11.75
2023-04-09T12:38:56.374Z,11.10
2023-04-09T12:41:24.152Z,12.30
2023-04-09T12:43:51.446Z,11.23
2023-04-09T12:46:19.773Z,11.05
2023-04-09T12:48:46.974Z,10.90
2023-04-09T12:51:14.219Z,11.85
2023-04-09T12:53:40.931Z,12.70
2023-04-09T12:56:08.004Z,14.05
2023-04-09T12:58:35.708Z,11.45
2023-04-09T13:01:04.281Z,12.43
2023-04-09T13:03:31.193Z,11.23
2023-04-09T13:05:58.024Z,11.30
2023-04-09T13:08:24.592Z,11.05
2023-04-09T13:10:51.204Z,11.68
2023-04-09T13:13:17.782Z,11.77
2023-04-09T13:15:45.066Z,11.85
2023-04-09T13:18:14.794Z,11.68
2023-04-09T13:20:41.412Z,12.25
2023-04-09T13:23:07.906Z,11.98
2023-04-09T13:25:34.466Z,10.80
2023-04-09T13:28:01.001Z,11.15
2023-04-09T13:30:27.562Z,10.95
2023-04-09T13:32:54.118Z,11.40
2023-04-09T13:35:20.714Z,10.70
2023-04-09T13:37:47.201Z,10.82
2023-04-09T13:40:13.793Z,11.35
2023-04-09T13:42:40.338Z,10.90
2023-04-09T13:45:07.172Z,10.60
2023-04-09T13:47:33.740Z,10.70
2023-04-09T13:50:00.507Z,10.68
2023-04-09T13:52:29.646Z,10.05
2023-04-09T13:54:56.643Z,11.30
2023-04-09T13:57:23.271Z,9.77
2023-04-09T13:59:49.814Z,11.30
2023-04-09T14:02:18.375Z,10.82
2023-04-09T14:04:45.815Z,10.65
2023-04-09T14:07:12.379Z,10.32
2023-04-09T14:09:38.924Z,10.98
2023-04-09T14:12:05.699Z,10.50
2023-04-09T14:14:32.638Z,10.35
2023-04-09T14:16:59.204Z,9.73
2023-04-09T14:19:25.865Z,11.75
2023-04-09T14:21:53.345Z,10.73
2023-04-09T14:24:22.979Z,10.48
2023-04-09T14:26:52.289Z,10.00
2023-04-09T14:29:19.528Z,10.02
2023-04-09T14:31:47.320Z,9.50
2023-04-09T14:34:14.145Z,9.50
2023-04-09T14:36:40.761Z,9.73
2023-04-09T14:39:07.379Z,9.90
2023-04-09T14:41:34.365Z,8.80
2023-04-09T14:44:01.067Z,9.63
2023-04-09T14:46:27.698Z,8.85
2023-04-09T14:48:54.739Z,9.20
2023-04-09T14:51:21.506Z,8.32
2023-04-09T14:53:48.526Z,9.50
2023-04-09T14:56:15.400Z,8.52
2023-04-09T14:58:41.891Z,9.32
2023-04-09T15:01:08.433Z,8.45
2023-04-09T15:03:35.274Z,8.88
2023-04-09T15:06:01.979Z,8.50
2023-04-09T15:08:28.615Z,8.65
2023-04-09T15:10:55.228Z,8.60
2023-04-09T15:13:21.726Z,8.40
2023-04-09T15:15:48.272Z,8.20
2023-04-09T15:18:15.087Z,8.02
2023-04-09T15:20:43.306Z,7.40
2023-04-09T15:23:11.019Z,7.53
2023-04-09T15:25:37.853Z,8.75
2023-04-09T15:28:04.646Z,7.55
2023-04-09T15:30:31.319Z,7.32
2023-04-09T15:32:58.085Z,7.93
2023-04-09T15:35:29.105Z,8.02
2023-04-09T15:37:59.246Z,8.48
2023-04-09T15:40:25.921Z,7.35
2023-04-09T15:42:52.515Z,7.43
2023-04-09T15:45:19.196Z,7.70
2023-04-09T15:47:46.466Z,7.07
2023-04-09T15:50:14.213Z,6.35
2023-04-09T15:52:40.781Z,7.38
2023-04-09T15:55:07.636Z,7.10
2023-04-09T15:57:34.147Z,7.10
2023-04-09T16:00:00.708Z,6.70
2023-04-09T16:02:27.344Z,6.68
2023-04-09T16:04:54.045Z,6.68
2023-04-09T16:07:20.770Z,6.60
2023-04-09T16:09:47.319Z,6.32
2023-04-09T16:12:13.868Z,6.47
2023-04-09T16:14:40.938Z,6.60
2023-04-09T16:17:07.645Z,6.70
2023-04-09T16:19:34.279Z,6.45
2023-04-09T16:22:01.687Z,5.80
2023-04-09T16:24:28.793Z,6.43
2023-04-09T16:26:56.394Z,6.18
2023-04-09T16:29:24.275Z,6.18
2023-04-09T16:31:50.807Z,6.20
2023-04-09T16:34:17.375Z,5.80
2023-04-09T16:36:44.691Z,6.35
2023-04-09T16:39:11.477Z,6.10
2023-04-09T16:41:38.434Z,5.43
2023-04-09T16:44:04.987Z,5.70
2023-04-09T16:46:31.660Z,6.18
2023-04-09T16:48:58.176Z,5.78
2023-04-09T16:51:24.936Z,5.63
2023-04-09T16:53:51.639Z,5.50
2023-04-09T16:56:18.258Z,5.50
2023-04-09T16:58:46.554Z,5.30
2023-04-09T17:01:13.201Z,5.78
2023-04-09T17:03:39.871Z,5.85
2023-04-09T17:06:06.987Z,5.63
2023-04-09T17:08:35.058Z,5.72
2023-04-09T17:11:02.358Z,5.00
2023-04-09T17:13:34.250Z,4.88
2023-04-09T17:16:01.202Z,4.88
2023-04-09T17:18:27.862Z,5.15
2023-04-09T17:20:54.661Z,4.82
2023-04-09T17:23:22.918Z,4.88
2023-04-09T17:25:49.589Z,5.32
2023-04-09T17:28:18.631Z,4.97
2023-04-09T17:30:45.559Z,4.70
2023-04-09T17:33:12.469Z,4.88
2023-04-09T17:35:39.435Z,5.53
2023-04-09T17:38:06.187Z,4.63
2023-04-09T17:40:32.748Z,5.38
2023-04-09T17:43:00.067Z,4.93
2023-04-09T17:45:26.769Z,5.35
2023-04-09T17:47:53.281Z,4.70
2023-04-09T17:50:20.000Z,4.55
2023-04-09T17:52:46.850Z,4.68
2023-04-09T17:55:13.947Z,4.50
2023-04-09T17:57:41.633Z,5.03
2023-04-09T18:00:09.733Z,4.70
2023-04-09T18:02:36.770Z,4.50
2023-04-09T18:05:07.240Z,4.07
2023-04-09T18:10:02.403Z,4.22
2023-04-09T18:12:29.204Z,4.57
2023-04-09T18:14:55.948Z,4.40
2023-04-09T18:17:22.802Z,4.13
2023-04-09T18:19:49.562Z,4.72
2023-04-09T18:22:16.601Z,4.65
2023-04-09T18:24:43.201Z,4.32
2023-04-09T18:27:09.759Z,4.13
2023-04-09T18:29:36.363Z,4.22
2023-04-09T18:32:02.928Z,4.25
2023-04-09T18:34:29.651Z,4.38
2023-04-09T18:36:56.203Z,4.20
2023-04-09T18:39:23.150Z,4.45
2023-04-09T18:41:49.834Z,4.20
2023-04-09T18:44:16.581Z,4.93
2023-04-09T18:46:43.224Z,4.18
2023-04-09T18:49:10.080Z,4.60
2023-04-09T18:51:36.708Z,4.05
2023-04-09T18:54:03.288Z,3.97
2023-04-09T18:56:29.904Z,4.10
2023-04-09T18:58:56.706Z,4.03
2023-04-09T19:01:23.428Z,3.90
2023-04-09T19:03:50.203Z,4.05
2023-04-09T19:06:19.202Z,4.00
2023-04-09T19:08:46.904Z,4.05
2023-04-09T19:11:14.328Z,3.95
2023-04-09T19:13:40.941Z,4.32
2023-04-09T19:16:09.375Z,4.30
2023-04-09T19:18:37.091Z,4.03
2023-04-09T19:21:04.101Z,4.18
2023-04-09T19:23:30.757Z,4.28
2023-04-09T19:25:57.633Z,3.83
2023-04-09T19:28:24.380Z,3.90
2023-04-09T19:30:52.509Z,4.22
2023-04-09T19:33:26.653Z,3.88
2023-04-09T19:35:55.332Z,4.07
2023-04-09T19:38:22.079Z,4.18
2023-04-09T19:40:48.797Z,4.22
2023-04-09T19:43:15.541Z,4.38
2023-04-09T19:45:44.838Z,4.03
2023-04-09T19:48:12.730Z,4.20
2023-04-09T19:50:46.472Z,3.88
2023-04-09T19:53:13.156Z,3.78
2023-04-09T19:55:39.712Z,4.32
2023-04-09T19:58:06.968Z,3.60
2023-04-09T20:00:34.549Z,3.35
2023-04-09T20:03:01.678Z,3.70
2023-04-09T20:05:29.163Z,4.10
2023-04-09T20:07:55.763Z,3.78
2023-04-09T20:10:22.236Z,4.03
2023-04-09T20:12:49.855Z,5.03
2023-04-09T20:15:19.839Z,4.78
2023-04-09T20:17:50.854Z,5.00
2023-04-09T20:20:20.848Z,3.58
2023-04-09T20:22:55.488Z,6.38
2023-04-09T20:25:23.702Z,4.47
2023-04-09T20:27:52.850Z,4.00
2023-04-09T20:30:19.867Z,4.30
2023-04-09T20:32:47.484Z,4.15
2023-04-09T20:35:14.619Z,4.22
2023-04-09T20:37:41.233Z,4.00
2023-04-09T20:40:08.275Z,5.20
2023-04-09T20:42:34.750Z,4.63
2023-04-09T20:45:01.943Z,4.10
2023-04-09T20:47:28.853Z,4.10
2023-04-09T20:49:59.672Z,4.68
2023-04-09T20:52:28.477Z,3.25
2023-04-09T20:54:56.886Z,3.83
2023-04-09T20:57:23.973Z,6.50
2023-04-09T20:59:50.888Z,4.10
2023-04-09T21:02:17.614Z,3.60
2023-04-09T21:04:44.605Z,4.07
2023-04-09T21:07:11.522Z,5.20
2023-04-09T21:09:38.367Z,3.38
2023-04-09T21:12:05.097Z,4.10
2023-04-09T21:14:31.823Z,3.97
2023-04-09T21:16:58.451Z,4.28
2023-04-09T21:19:25.064Z,3.80
2023-04-09T21:21:51.873Z,3.70
2023-04-09T21:24:18.518Z,3.53
2023-04-09T21:26:51.778Z,3.72
2023-04-09T21:29:20.683Z,4.40
2023-04-09T21:31:48.159Z,3.72
2023-04-09T21:34:14.698Z,3.58
2023-04-09T21:36:41.314Z,3.42
2023-04-09T21:39:07.920Z,3.60
2023-04-09T21:41:34.562Z,3.53
2023-04-09T21:44:07.839Z,3.58
2023-04-09T21:46:36.878Z,4.35
2023-04-09T21:49:04.310Z,3.38
2023-04-09T21:51:31.565Z,3.22
2023-04-09T21:54:06.210Z,3.63
2023-04-09T21:56:33.985Z,3.80
2023-04-09T21:59:01.312Z,3.50
2023-04-09T22:01:30.574Z,3.38
2023-04-09T22:04:01.920Z,3.50
2023-04-09T22:06:29.056Z,3.22
2023-04-09T22:08:57.813Z,3.75
2023-04-09T22:11:27.475Z,3.55
2023-04-09T22:13:58.269Z,3.50
2023-04-09T22:16:25.989Z,3.05
2023-04-09T22:18:53.965Z,3.10
2023-04-09T22:21:21.046Z,3.55
2023-04-09T22:23:47.689Z,3.30
2023-04-09T22:26:14.333Z,3.15
2023-04-09T22:28:40.884Z,2.85
2023-04-09T22:31:07.666Z,3.22
2023-04-09T22:33:34.345Z,3.00
2023-04-09T22:36:01.221Z,3.00
2023-04-09T22:38:27.827Z,2.97
2023-04-09T22:40:54.548Z,3.05
2023-04-09T22:43:21.290Z,3.50
2023-04-09T22:45:52.747Z,3.08
2023-04-09T22:48:20.179Z,3.25
2023-04-09T22:50:47.696Z,3.40
2023-04-09T22:53:20.771Z,3.42
2023-04-09T22:55:51.271Z,3.38
2023-04-09T23:00:44.544Z,3.25
2023-04-09T23:03:11.309Z,3.95
2023-04-09T23:05:38.187Z,3.10
2023-04-09T23:08:05.534Z,3.45
2023-04-09T23:10:33.429Z,3.38
2023-04-09T23:13:00.005Z,3.50
2023-04-09T23:15:27.268Z,2.95
2023-04-09T23:17:54.137Z,3.22
2023-04-09T23:20:20.719Z,3.22
2023-04-09T23:22:48.001Z,3.05
2023-04-09T23:25:18.183Z,3.15
2023-04-09T23:27:44.947Z,3.63
2023-04-09T23:30:16.512Z,2.97
2023-04-09T23:32:44.822Z,3.47
2023-04-09T23:35:12.144Z,3.20
2023-04-09T23:37:39.574Z,3.40
2023-04-09T23:40:07.402Z,3.05
2023-04-09T23:42:34.064Z,3.05
2023-04-09T23:45:04.874Z,2.83
2023-04-09T23:47:33.649Z,3.72
2023-04-09T23:50:07.972Z,3.40
2023-04-09T23:52:36.443Z,3.20
2023-04-09T23:55:04.486Z,2.97
2023-04-09T23:57:31.188Z,2.92
2023-04-09T23:59:57.772Z,3.00
